Time;durP1;ratioP1;P1;durP2;ratioP2;P2;SDS_P1;SDS_P2;PMS_P1;PMS_P2;Temp;Humidity;BMP_temperature;BMP_pressure;BME280_temperature;BME280_humidity;BME280_pressure;Samples;Min_cycle;Max_cycle;Signal;HPM_P1;HPM_P2
2023/05/04 00:00:17;;;;;;;3.50;3.03;;;7.10;1.00;;;;;;5072808;28;20193;-86
2023/05/04 00:02:43;;;;;;;3.93;3.00;;;7.00;1.00;;;;;;5073538;28;20604;-86
2023/05/04 00:05:11;;;;;;;5.03;3.33;;;7.10;1.00;;;;;;5072412;28;20220;-85
2023/05/04 00:07:36;;;;;;;3.23;2.60;;;7.00;99.90;;;;;;5072631;28;20182;-86
2023/05/04 00:10:02;;;;;;;4.13;2.70;;;7.00;99.90;;;;;;5073616;28;20176;-86
2023/05/04 00:12:27;;;;;;;2.70;2.50;;;7.00;99.90;;;;;;5072530;28;20182;-86
2023/05/04 00:14:53;;;;;;;5.63;2.80;;;6.90;1.00;;;;;;5071761;28;20245;-85
2023/05/04 00:17:18;;;;;;;5.13;3.23;;;6.90;1.00;;;;;;5072342;28;20658;-86
2023/05/04 00:19:45;;;;;;;3.13;2.70;;;7.00;99.90;;;;;;5072254;28;20188;-85
2023/05/04 00:22:11;;;;;;;3.10;2.60;;;7.10;99.90;;;;;;5073488;28;20209;-86
2023/05/04 00:24:36;;;;;;;3.60;2.70;;;7.00;99.90;;;;;;5071925;28;20363;-86
2023/05/04 00:27:02;;;;;;;2.97;2.67;;;6.70;1.00;;;;;;5073472;28;20259;-86
2023/05/04 00:29:28;;;;;;;3.10;2.80;;;6.50;1.00;;;;;;5071973;28;20636;-86
2023/05/04 00:31:53;;;;;;;4.63;2.80;;;6.50;99.90;;;;;;5073176;28;20172;-86
2023/05/04 00:34:19;;;;;;;3.37;3.00;;;6.40;1.00;;;;;;5071761;28;20660;-85
2023/05/04 00:36:45;;;;;;;3.60;2.80;;;6.30;99.90;;;;;;5072070;28;20691;-85
2023/05/04 00:39:10;;;;;;;3.50;2.77;;;6.40;99.90;;;;;;5071811;28;20177;-85
2023/05/04 00:41:36;;;;;;;6.83;3.73;;;6.20;1.00;;;;;;5072713;28;20208;-86
2023/05/04 00:44:05;;;;;;;4.57;3.33;;;6.10;1.00;;;;;;5072990;28;20170;-85
2023/05/04 00:46:32;;;;;;;3.43;3.10;;;6.10;99.90;;;;;;5073195;28;20179;-86
2023/05/04 00:49:01;;;;;;;4.33;3.67;;;5.90;1.00;;;;;;5071808;28;20180;-86
2023/05/04 00:51:33;;;;;;;3.73;3.13;;;5.90;1.00;;;;;;5072678;28;20184;-86
2023/05/04 00:54:02;;;;;;;3.90;3.33;;;5.80;1.00;;;;;;5072716;28;20685;-86
2023/05/04 00:56:29;;;;;;;4.93;3.27;;;5.80;23.80;;;;;;5071456;28;20177;-86
2023/05/04 00:58:57;;;;;;;4.00;3.10;;;5.90;99.90;;;;;;5071731;28;20638;-85
2023/05/04 01:01:24;;;;;;;3.50;3.20;;;6.10;1.00;;;;;;5071293;28;20210;-86
2023/05/04 01:03:50;;;;;;;3.73;3.27;;;5.90;1.00;;;;;;5072937;28;20169;-86
2023/05/04 01:06:38;;;;;;;4.87;3.40;;;5.80;99.90;;;;;;5072648;28;20653;-86
2023/05/04 01:09:35;;;;;;;5.37;3.00;;;5.80;24.10;;;;;;5071593;28;20183;-86
2023/05/04 01:12:07;;;;;;;4.43;3.30;;;6.00;99.90;;;;;;5072222;28;20191;-86
2023/05/04 01:14:34;;;;;;;3.90;2.93;;;6.00;99.90;;;;;;5054442;28;20207;-86
2023/05/04 01:17:03;;;;;;;4.53;3.30;;;6.00;1.00;;;;;;5072652;28;20171;-85
2023/05/04 01:19:28;;;;;;;4.20;3.80;;;5.80;18.30;;;;;;5072410;28;20254;-86
2023/05/04 01:21:55;;;;;;;4.20;3.20;;;5.70;99.90;;;;;;5054615;28;20662;-86
2023/05/04 01:24:21;;;;;;;3.93;3.20;;;5.50;99.90;;;;;;5054531;28;20196;-86
2023/05/04 01:26:50;;;;;;;4.37;3.03;;;5.60;1.00;;;;;;5054381;28;20651;-86
2023/05/04 01:29:31;;;;;;;3.97;3.40;;;5.80;1.00;;;;;;5054385;28;20169;-86
2023/05/04 01:31:58;;;;;;;3.97;3.00;;;6.00;1.00;;;;;;5054625;28;20184;-86
2023/05/04 01:34:24;;;;;;;4.50;3.30;;;6.00;1.00;;;;;;5054524;28;20256;-85
2023/05/04 01:36:50;;;;;;;3.40;2.97;;;6.00;1.00;;;;;;5072560;28;20173;-85
2023/05/04 01:39:16;;;;;;;3.50;3.20;;;5.60;46.50;;;;;;5072263;28;20172;-85
2023/05/04 01:41:42;;;;;;;4.27;3.33;;;5.50;99.90;;;;;;5054281;28;20562;-85
2023/05/04 01:44:07;;;;;;;5.77;3.40;;;5.50;99.90;;;;;;5054506;28;20175;-85
2023/05/04 01:46:33;;;;;;;5.20;3.30;;;5.50;99.90;;;;;;5072441;28;20168;-85
2023/05/04 01:48:59;;;;;;;4.03;3.30;;;5.50;99.90;;;;;;5054224;28;20259;-85
2023/05/04 01:51:24;;;;;;;4.33;3.17;;;5.60;1.00;;;;;;5054440;28;20180;-85
2023/05/04 01:53:50;;;;;;;3.50;3.20;;;5.60;1.00;;;;;;5072096;28;20172;-85
2023/05/04 01:56:15;;;;;;;4.03;3.20;;;5.40;1.00;;;;;;5072372;28;20277;-86
2023/05/04 01:58:41;;;;;;;3.87;3.20;;;5.40;49.60;;;;;;5054118;28;20181;-85
2023/05/04 02:01:07;;;;;;;3.40;3.10;;;5.20;1.00;;;;;;5053863;28;20712;-85
2023/05/04 02:03:32;;;;;;;6.27;3.63;;;5.00;99.90;;;;;;5072285;28;20174;-85
2023/05/04 02:05:58;;;;;;;3.93;3.53;;;4.90;1.00;;;;;;5071913;28;20217;-85
2023/05/04 02:08:24;;;;;;;4.50;3.70;;;4.90;99.90;;;;;;5071964;28;20599;-85
2023/05/04 02:10:49;;;;;;;5.17;3.73;;;5.00;1.00;;;;;;5054226;28;20195;-85
2023/05/04 02:13:15;;;;;;;4.07;3.33;;;5.00;1.00;;;;;;5072170;28;20178;-85
2023/05/04 02:15:41;;;;;;;4.93;3.47;;;4.90;1.00;;;;;;5072141;28;20186;-85
2023/05/04 02:18:06;;;;;;;5.90;3.50;;;5.00;1.00;;;;;;5054325;28;20174;-85
2023/05/04 02:20:32;;;;;;;4.63;3.63;;;4.90;1.00;;;;;;5053722;28;20178;-84
2023/05/04 02:22:57;;;;;;;4.33;3.67;;;5.00;1.00;;;;;;5078718;28;20190;-85
2023/05/04 02:25:23;;;;;;;6.43;3.50;;;5.10;1.00;;;;;;5077617;28;20307;-85
2023/05/04 02:27:48;;;;;;;4.80;3.50;;;5.30;99.90;;;;;;5077630;28;20170;-85
2023/05/04 02:30:15;;;;;;;5.30;3.50;;;5.40;99.90;;;;;;5077294;28;20171;-85
2023/05/04 02:32:40;;;;;;;4.97;3.30;;;5.50;1.00;;;;;;5095668;28;20174;-85
2023/05/04 02:35:06;;;;;;;5.87;3.40;;;5.30;1.00;;;;;;5077838;28;20247;-85
2023/05/04 02:37:32;;;;;;;5.47;3.73;;;5.40;1.00;;;;;;5077771;28;20184;-85
2023/05/04 02:39:57;;;;;;;4.10;3.27;;;5.30;1.00;;;;;;5095654;28;20652;-85
2023/05/04 02:42:23;;;;;;;5.40;3.93;;;5.20;1.00;;;;;;5077383;28;20203;-85
2023/05/04 02:44:48;;;;;;;4.90;3.30;;;5.20;1.00;;;;;;5095404;28;20198;-85
2023/05/04 02:47:14;;;;;;;4.37;3.60;;;5.30;1.00;;;;;;5095694;28;20179;-85
2023/05/04 02:49:40;;;;;;;4.53;3.53;;;5.40;1.00;;;;;;5095210;28;20168;-84
2023/05/04 02:52:05;;;;;;;4.13;3.37;;;5.60;1.00;;;;;;5077427;28;20296;-85
2023/05/04 02:54:31;;;;;;;3.50;3.20;;;5.60;1.00;;;;;;5095459;28;20200;-85
2023/05/04 02:56:56;;;;;;;4.27;3.63;;;5.60;99.90;;;;;;5077184;28;20717;-85
2023/05/04 02:59:22;;;;;;;4.67;3.20;;;5.40;1.00;;;;;;5095447;28;20185;-84
2023/05/04 03:01:47;;;;;;;7.27;3.70;;;5.30;1.00;;;;;;5077124;28;20230;-85
2023/05/04 03:04:13;;;;;;;4.53;3.40;;;5.20;51.60;;;;;;5095069;28;20554;-84
2023/05/04 03:06:39;;;;;;;5.27;3.37;;;5.20;1.00;;;;;;5095319;28;20161;-84
2023/05/04 03:09:04;;;;;;;4.47;3.30;;;5.20;99.90;;;;;;5095060;28;20658;-85
2023/05/04 03:11:30;;;;;;;3.70;3.30;;;5.00;1.00;;;;;;5076638;28;20174;-85
2023/05/04 03:13:55;;;;;;;4.07;3.67;;;5.10;1.00;;;;;;5076918;28;20201;-85
2023/05/04 03:16:21;;;;;;;3.70;3.40;;;5.10;99.90;;;;;;5095326;28;20230;-85
2023/05/04 03:18:46;;;;;;;3.57;3.27;;;5.10;99.90;;;;;;5094907;28;20226;-85
2023/05/04 03:21:12;;;;;;;4.33;3.70;;;5.20;99.90;;;;;;5094624;28;20209;-85
2023/05/04 03:23:38;;;;;;;3.83;3.10;;;5.20;99.90;;;;;;5076860;28;20177;-85
2023/05/04 03:26:03;;;;;;;4.40;3.03;;;5.30;1.00;;;;;;5094861;28;20528;-85
2023/05/04 03:28:29;;;;;;;4.07;3.30;;;5.40;1.00;;;;;;5076551;28;20179;-85
2023/05/04 03:30:54;;;;;;;3.97;3.27;;;5.50;1.00;;;;;;5094297;28;20186;-85
2023/05/04 03:33:20;;;;;;;3.47;3.00;;;5.30;99.90;;;;;;5076560;28;20175;-85
2023/05/04 03:35:45;;;;;;;4.90;3.30;;;5.40;1.00;;;;;;5076467;28;20195;-85
2023/05/04 03:38:11;;;;;;;7.00;3.43;;;5.40;1.00;;;;;;5076718;28;20241;-85
2023/05/04 03:40:37;;;;;;;4.70;3.17;;;5.30;1.00;;;;;;5094534;28;20192;-85
2023/05/04 03:43:03;;;;;;;4.53;3.80;;;5.30;99.90;;;;;;5076396;28;20213;-85
2023/05/04 03:45:28;;;;;;;5.57;4.13;;;4.90;20.80;;;;;;5076158;28;20686;-85
2023/05/04 03:47:54;;;;;;;5.63;3.70;;;4.80;1.00;;;;;;5076504;28;20257;-85
2023/05/04 03:50:21;;;;;;;3.87;3.47;;;4.70;1.00;;;;;;5076211;28;20656;-85
2023/05/04 03:52:47;;;;;;;4.10;3.70;;;4.80;30.00;;;;;;5094572;28;20238;-85
2023/05/04 03:55:12;;;;;;;9.93;4.20;;;4.70;99.90;;;;;;5076275;28;20673;-85
2023/05/04 03:57:38;;;;;;;4.40;3.90;;;4.70;99.90;;;;;;5076283;28;20222;-86
2023/05/04 04:00:04;;;;;;;4.23;3.70;;;4.70;22.60;;;;;;5094129;28;20184;-85
2023/05/04 04:02:30;;;;;;;5.83;3.67;;;4.70;99.90;;;;;;5075684;28;20249;-85
2023/05/04 04:04:56;;;;;;;4.20;3.57;;;4.70;99.90;;;;;;5075642;28;20209;-85
2023/05/04 04:07:22;;;;;;;3.83;3.27;;;4.70;6.10;;;;;;5094135;28;20321;-85
2023/05/04 04:09:47;;;;;;;4.20;3.50;;;4.60;12.00;;;;;;5094002;28;20201;-85
2023/05/04 04:12:14;;;;;;;3.90;3.50;;;4.50;99.90;;;;;;5075806;28;20202;-85
2023/05/04 04:14:40;;;;;;;5.13;3.70;;;4.40;1.00;;;;;;5075768;28;20193;-85
2023/05/04 04:17:06;;;;;;;4.43;3.60;;;4.40;1.00;;;;;;5093964;28;20201;-85
2023/05/04 04:19:31;;;;;;;4.20;3.63;;;4.40;1.00;;;;;;5075856;28;20185;-85
2023/05/04 04:21:58;;;;;;;4.20;3.27;;;4.50;99.90;;;;;;5075427;28;20309;-85
2023/05/04 04:24:24;;;;;;;3.60;3.30;;;4.40;99.90;;;;;;5093800;28;20190;-84
2023/05/04 04:26:50;;;;;;;4.03;3.60;;;4.50;99.90;;;;;;5093618;28;20177;-85
2023/05/04 04:29:16;;;;;;;5.40;3.90;;;4.40;99.90;;;;;;5093708;28;20180;-85
2023/05/04 04:31:41;;;;;;;4.87;3.80;;;4.30;99.90;;;;;;5075266;28;20177;-85
2023/05/04 04:34:07;;;;;;;4.40;3.70;;;4.50;99.90;;;;;;5075217;28;20188;-85
2023/05/04 04:36:33;;;;;;;4.83;3.83;;;4.50;99.90;;;;;;5075425;28;20201;-85
2023/05/04 04:38:59;;;;;;;4.93;3.60;;;4.60;99.90;;;;;;5093604;28;20164;-85
2023/05/04 04:41:25;;;;;;;4.50;3.40;;;4.80;99.90;;;;;;5075239;28;20273;-85
2023/05/04 04:43:50;;;;;;;4.50;3.83;;;5.00;1.00;;;;;;5075133;28;20193;-85
2023/05/04 04:46:16;;;;;;;4.90;3.60;;;5.10;1.00;;;;;;5074837;28;20217;-82
2023/05/04 04:48:41;;;;;;;9.93;4.07;;;5.10;99.90;;;;;;5075404;28;20201;-82
2023/05/04 04:51:11;;;;;;;4.60;3.40;;;5.10;99.90;;;;;;5075035;28;20178;-82
2023/05/04 04:53:37;;;;;;;4.40;3.73;;;5.20;99.90;;;;;;5075375;28;20181;-82
2023/05/04 04:56:04;;;;;;;4.53;3.70;;;5.10;1.00;;;;;;5075231;28;20205;-82
2023/05/04 04:58:30;;;;;;;4.43;4.00;;;5.10;48.20;;;;;;5093735;28;20178;-83
2023/05/04 05:00:57;;;;;;;5.13;3.83;;;5.30;99.90;;;;;;5093144;28;20306;-81
2023/05/04 05:03:22;;;;;;;5.20;3.40;;;5.40;1.00;;;;;;5093723;28;20183;-82
2023/05/04 05:05:48;;;;;;;4.87;3.83;;;5.50;1.00;;;;;;5085568;22;20239;-83
2023/05/04 05:08:15;;;;;;;5.17;3.70;;;5.50;86.10;;;;;;5045105;28;20176;-83
2023/05/04 05:10:41;;;;;;;4.90;3.80;;;5.40;99.90;;;;;;5053523;28;20175;-84
2023/05/04 05:13:07;;;;;;;5.30;4.20;;;5.50;99.90;;;;;;5069971;28;20611;-83
2023/05/04 05:15:33;;;;;;;5.97;4.43;;;5.40;99.90;;;;;;5053222;28;20196;-83
2023/05/04 05:17:58;;;;;;;4.73;4.23;;;5.50;99.90;;;;;;5044547;28;20172;-83
2023/05/04 05:20:24;;;;;;;5.37;4.67;;;5.70;86.50;;;;;;5053933;28;20171;-83
2023/05/04 05:22:50;;;;;;;7.80;4.03;;;5.80;1.00;;;;;;5069566;28;20267;-82
2023/05/04 05:25:16;;;;;;;5.00;4.27;;;5.80;99.90;;;;;;5053310;28;20192;-81
2023/05/04 05:27:42;;;;;;;6.63;4.10;;;6.20;35.70;;;;;;5052991;28;20658;-81
2023/05/04 05:30:08;;;;;;;5.07;4.03;;;6.80;99.90;;;;;;5053255;28;20179;-82
2023/05/04 05:32:33;;;;;;;6.00;4.47;;;7.20;99.90;;;;;;5051904;28;20528;-81
2023/05/04 05:34:59;;;;;;;5.73;4.47;;;7.00;1.00;;;;;;5051573;28;20267;-84
2023/05/04 05:37:24;;;;;;;5.37;4.30;;;7.10;1.00;;;;;;5053639;28;20186;-83
2023/05/04 05:39:50;;;;;;;6.23;4.70;;;6.90;1.00;;;;;;5053572;28;20519;-84
2023/05/04 05:42:16;;;;;;;7.17;4.63;;;6.60;1.00;;;;;;5053757;28;20205;-85
2023/05/04 05:44:44;;;;;;;5.00;4.50;;;6.50;1.00;;;;;;5052828;28;20183;-85
2023/05/04 05:47:09;;;;;;;6.57;4.77;;;6.50;99.90;;;;;;5053090;28;20160;-85
2023/05/04 05:49:35;;;;;;;6.13;4.90;;;6.50;8.90;;;;;;5053236;28;20183;-79
2023/05/04 05:52:01;;;;;;;5.20;4.67;;;6.70;1.00;;;;;;5053821;28;20198;-81
2023/05/04 05:54:30;;;;;;;7.50;4.60;;;6.80;1.00;;;;;;5052685;28;20201;-82
2023/05/04 05:56:55;;;;;;;5.40;4.80;;;6.90;1.00;;;;;;5052612;28;20193;-82
2023/05/04 05:59:21;;;;;;;5.30;4.80;;;7.00;1.00;;;;;;5055642;28;20173;-81
2023/05/04 06:01:46;;;;;;;7.80;5.17;;;7.10;99.90;;;;;;5056199;28;20204;-81
2023/05/04 06:04:12;;;;;;;7.13;4.97;;;7.10;1.00;;;;;;5057464;28;20173;-81
2023/05/04 06:06:37;;;;;;;5.60;4.30;;;7.10;99.90;;;;;;5055327;28;20209;-82
2023/05/04 06:09:04;;;;;;;6.50;4.70;;;7.20;1.00;;;;;;5057475;28;20197;-82
2023/05/04 06:11:30;;;;;;;7.00;5.10;;;7.20;1.00;;;;;;5057203;28;20234;-82
2023/05/04 06:13:56;;;;;;;6.10;4.80;;;7.20;1.00;;;;;;5057387;28;20176;-81
2023/05/04 06:16:22;;;;;;;7.03;5.07;;;7.20;1.00;;;;;;5040351;28;20269;-82
2023/05/04 06:18:47;;;;;;;7.80;5.20;;;7.20;1.00;;;;;;5032755;28;20180;-81
2023/05/04 06:21:13;;;;;;;7.00;4.80;;;7.30;99.90;;;;;;5015968;28;20196;-82
2023/05/04 06:23:39;;;;;;;6.30;5.50;;;7.30;1.00;;;;;;5032916;28;20577;-81
2023/05/04 06:26:06;;;;;;;8.20;5.60;;;7.40;99.90;;;;;;5032418;28;20213;-81
2023/05/04 06:28:32;;;;;;;7.73;6.17;;;7.50;99.90;;;;;;5018330;28;20208;-81
2023/05/04 06:30:58;;;;;;;7.93;6.07;;;7.40;99.90;;;;;;5051676;28;20644;-81
2023/05/04 06:33:24;;;;;;;9.13;6.07;;;7.50;1.00;;;;;;5056241;28;20165;-80
2023/05/04 06:35:51;;;;;;;7.07;5.57;;;7.60;1.00;;;;;;5056294;28;20189;-82
2023/05/04 06:38:16;;;;;;;8.00;5.93;;;7.70;99.90;;;;;;5055701;28;20269;-82
2023/05/04 06:40:42;;;;;;;7.77;6.13;;;7.70;99.90;;;;;;5055799;28;20219;-81
2023/05/04 06:43:07;;;;;;;9.20;6.10;;;7.80;99.90;;;;;;5057298;28;20204;-82
2023/05/04 06:45:34;;;;;;;7.27;5.97;;;7.90;1.00;;;;;;5055727;28;20258;-82
2023/05/04 06:48:01;;;;;;;8.40;6.33;;;8.00;99.90;;;;;;5057410;28;20177;-81
2023/05/04 06:50:26;;;;;;;6.67;5.70;;;8.10;99.90;;;;;;5055405;28;20188;-81
2023/05/04 06:53:02;;;;;;;7.03;5.97;;;8.20;1.00;;;;;;5056687;28;20254;-82
2023/05/04 06:55:28;;;;;;;7.43;5.73;;;8.30;1.00;;;;;;5056861;28;20209;-81
2023/05/04 06:57:53;;;;;;;13.27;6.67;;;8.60;1.00;;;;;;5056626;28;20183;-81
2023/05/04 07:00:19;;;;;;;7.97;5.97;;;8.60;58.10;;;;;;5056658;28;20209;-82
2023/05/04 07:02:45;;;;;;;7.77;5.80;;;8.80;1.00;;;;;;5054917;28;20205;-81
2023/05/04 07:05:11;;;;;;;7.07;6.00;;;8.90;99.90;;;;;;5056452;28;20205;-81
2023/05/04 07:07:37;;;;;;;9.03;5.70;;;9.10;28.70;;;;;;5055586;28;20286;-82
2023/05/04 07:10:03;;;;;;;7.80;6.30;;;9.10;1.00;;;;;;5055767;28;20596;-81
2023/05/04 07:12:29;;;;;;;8.30;6.10;;;9.20;1.00;;;;;;5054713;28;20267;-82
2023/05/04 07:14:55;;;;;;;6.90;5.73;;;9.30;1.00;;;;;;5054670;28;20188;-82
2023/05/04 07:17:24;;;;;;;8.67;6.20;;;9.50;1.00;;;;;;5056418;28;20180;-82
2023/05/04 07:19:51;;;;;;;6.70;5.60;;;9.60;1.00;;;;;;5054426;28;20177;-82
2023/05/04 07:22:17;;;;;;;13.07;6.07;;;9.80;1.00;;;;;;5054642;28;20204;-81
2023/05/04 07:24:42;;;;;;;8.30;5.90;;;10.00;1.00;;;;;;5054676;28;20180;-82
2023/05/04 07:27:09;;;;;;;9.33;6.07;;;10.10;1.00;;;;;;5055781;28;20203;-81
2023/05/04 07:29:35;;;;;;;8.90;6.17;;;10.10;1.00;;;;;;5055705;28;20181;-82
2023/05/04 07:32:00;;;;;;;6.83;6.13;;;10.20;1.00;;;;;;5055559;28;20178;-82
2023/05/04 07:34:26;;;;;;;8.83;5.70;;;10.40;99.90;;;;;;5055809;28;20169;-82
2023/05/04 07:36:51;;;;;;;7.73;5.97;;;10.40;1.00;;;;;;5056014;28;20194;-82
2023/05/04 07:39:17;;;;;;;7.20;5.90;;;10.50;1.00;;;;;;5055336;28;20178;-81
2023/05/04 07:41:42;;;;;;;8.57;6.03;;;10.70;1.00;;;;;;5055312;28;20725;-82
2023/05/04 07:44:10;;;;;;;7.90;6.47;;;10.80;99.90;;;;;;5055983;28;20173;-81
2023/05/04 07:46:37;;;;;;;9.23;6.03;;;10.90;1.00;;;;;;5046132;28;20221;-82
2023/05/04 07:49:03;;;;;;;7.43;5.60;;;11.00;99.90;;;;;;5048418;28;20182;-82
2023/05/04 07:51:28;;;;;;;8.13;6.27;;;11.10;99.90;;;;;;5054633;28;20182;-81
2023/05/04 07:53:54;;;;;;;6.47;5.87;;;11.20;99.90;;;;;;5053129;28;20185;-81
2023/05/04 07:56:20;;;;;;;8.60;6.40;;;11.40;99.90;;;;;;5053276;28;20197;-82
2023/05/04 07:58:46;;;;;;;8.07;6.00;;;11.50;99.90;;;;;;5054819;28;20173;-82
2023/05/04 08:01:12;;;;;;;7.10;5.77;;;11.70;1.00;;;;;;5048410;28;20237;-81
2023/05/04 08:03:37;;;;;;;6.43;5.83;;;11.80;99.90;;;;;;5033431;28;20170;-82
2023/05/04 08:06:03;;;;;;;7.17;6.20;;;11.90;99.90;;;;;;5034230;28;20289;-82
2023/05/04 08:08:28;;;;;;;6.63;5.60;;;12.00;1.00;;;;;;5033239;28;20177;-82
2023/05/04 08:10:54;;;;;;;8.80;6.10;;;12.10;1.00;;;;;;5034759;28;20182;-81
2023/05/04 08:13:20;;;;;;;8.07;6.17;;;12.30;1.00;;;;;;5034370;28;20266;-82
2023/05/04 08:15:45;;;;;;;7.40;6.20;;;12.50;99.90;;;;;;5034320;28;20551;-82
2023/05/04 08:18:11;;;;;;;10.30;6.50;;;12.60;1.00;;;;;;5033006;28;20703;-81
2023/05/04 08:20:36;;;;;;;9.23;5.93;;;12.80;1.00;;;;;;5048559;28;20185;-82
2023/05/04 08:23:03;;;;;;;7.73;5.77;;;13.00;99.90;;;;;;5052164;28;20194;-81
2023/05/04 08:25:29;;;;;;;6.73;6.03;;;13.30;1.00;;;;;;5052831;28;20192;-82
2023/05/04 08:27:55;;;;;;;8.70;6.63;;;13.50;1.00;;;;;;5052709;28;20181;-82
2023/05/04 08:30:20;;;;;;;11.07;6.20;;;13.70;1.00;;;;;;5054091;28;20181;-81
2023/05/04 08:32:47;;;;;;;9.73;5.80;;;13.90;99.90;;;;;;5053350;28;20254;-82
2023/05/04 08:35:12;;;;;;;7.13;6.10;;;14.00;99.90;;;;;;5053693;28;20194;-82
2023/05/04 08:37:38;;;;;;;7.93;5.67;;;14.20;99.90;;;;;;5055052;28;20200;-82
2023/05/04 08:40:04;;;;;;;10.00;5.53;;;14.30;26.70;;;;;;5054120;28;20173;-82
2023/05/04 08:42:31;;;;;;;8.40;5.90;;;14.40;23.30;;;;;;5054571;28;20209;-82
2023/05/04 08:44:58;;;;;;;7.30;5.50;;;14.60;99.90;;;;;;5053919;28;20193;-82
2023/05/04 08:47:30;;;;;;;6.57;5.27;;;14.80;1.00;;;;;;5053852;28;20181;-81
2023/05/04 08:49:56;;;;;;;6.47;5.87;;;15.00;99.90;;;;;;5052466;28;20173;-82
2023/05/04 08:52:24;;;;;;;7.27;5.77;;;15.20;99.90;;;;;;5052323;28;20176;-81
2023/05/04 08:54:53;;;;;;;6.43;5.20;;;15.30;68.80;;;;;;5053558;28;20166;-81
2023/05/04 08:57:22;;;;;;;6.10;5.50;;;15.50;48.40;;;;;;5052655;28;20173;-81
2023/05/04 08:59:51;;;;;;;6.93;5.77;;;15.70;99.90;;;;;;5052087;28;20177;-81
2023/05/04 09:02:19;;;;;;;6.97;5.80;;;15.90;35.60;;;;;;5053388;28;20201;-81
2023/05/04 09:04:45;;;;;;;6.90;6.00;;;16.10;1.00;;;;;;5038154;28;20217;-81
2023/05/04 09:07:10;;;;;;;7.30;5.53;;;16.30;1.00;;;;;;5032670;28;20633;-82
2023/05/04 09:09:36;;;;;;;7.63;6.30;;;16.50;1.00;;;;;;5032036;28;20170;-79
2023/05/04 09:12:02;;;;;;;6.37;5.43;;;16.80;1.00;;;;;;5034060;28;20181;-81
2023/05/04 09:14:33;;;;;;;6.07;5.20;;;16.90;1.00;;;;;;5043198;28;20632;-81
2023/05/04 09:17:00;;;;;;;6.53;5.50;;;17.00;99.90;;;;;;5053358;28;20547;-81
2023/05/04 09:19:32;;;;;;;7.67;5.63;;;17.20;1.00;;;;;;5051517;28;20174;-81
2023/05/04 09:21:59;;;;;;;6.13;4.73;;;17.50;1.00;;;;;;5051901;28;20259;-81
2023/05/04 09:24:28;;;;;;;7.33;5.10;;;17.70;1.00;;;;;;5034338;28;20178;-81
2023/05/04 09:26:54;;;;;;;6.37;5.40;;;17.80;99.90;;;;;;5032056;28;20190;-81
2023/05/04 09:29:22;;;;;;;8.30;5.37;;;17.80;99.90;;;;;;5031527;28;20170;-81
2023/05/04 09:31:49;;;;;;;6.73;5.17;;;17.90;99.90;;;;;;5034619;28;20553;-81
2023/05/04 09:34:15;;;;;;;7.47;5.80;;;18.00;99.90;;;;;;5032325;28;20178;-81
2023/05/04 09:36:41;;;;;;;6.33;5.70;;;18.10;99.90;;;;;;5033674;28;20217;-81
2023/05/04 09:39:14;;;;;;;7.53;5.80;;;17.90;99.90;;;;;;5032763;28;20260;-80
2023/05/04 09:41:41;;;;;;;5.30;3.63;;;18.00;99.90;;;;;;5031944;28;20198;-81
2023/05/04 09:44:21;;;;;;;7.93;4.03;;;18.10;99.90;;;;;;5033473;28;20549;-81
2023/05/04 09:46:54;;;;;;;4.27;3.80;;;18.30;99.90;;;;;;5032372;28;20201;-82
2023/05/04 09:49:34;;;;;;;4.13;3.73;;;18.40;99.90;;;;;;5032906;28;20174;-81
2023/05/04 09:52:01;;;;;;;5.87;3.70;;;18.60;99.90;;;;;;5034087;28;20170;-83
2023/05/04 09:54:33;;;;;;;4.50;3.53;;;18.60;99.90;;;;;;5035232;28;20174;-83
2023/05/04 09:57:14;;;;;;;5.67;3.70;;;18.80;99.90;;;;;;5032428;28;20162;-83
2023/05/04 09:59:40;;;;;;;6.07;3.43;;;19.00;99.90;;;;;;5033295;28;20200;-85
2023/05/04 10:02:06;;;;;;;5.10;3.70;;;19.10;99.90;;;;;;5032784;28;20202;-85
2023/05/04 10:04:33;;;;;;;4.53;3.50;;;19.10;99.90;;;;;;5032676;28;20202;-86
2023/05/04 10:07:02;;;;;;;4.20;3.50;;;19.20;99.90;;;;;;5033251;28;20210;-85
2023/05/04 10:09:30;;;;;;;3.97;3.60;;;19.30;96.70;;;;;;5031505;28;20171;-85
2023/05/04 10:11:59;;;;;;;5.33;3.50;;;19.40;54.50;;;;;;5031556;28;20236;-83
2023/05/04 10:14:29;;;;;;;4.67;3.67;;;19.60;60.00;;;;;;5032981;28;20195;-81
2023/05/04 10:17:01;;;;;;;3.70;3.40;;;19.90;46.40;;;;;;5031860;28;20285;-82
2023/05/04 10:19:41;;;;;;;4.88;3.20;;;20.20;40.60;;;;;;5033035;28;20178;-80
2023/05/04 10:22:45;;;;;;;3.90;3.13;;;20.40;1.00;;;;;;5036727;28;20232;-81
2023/05/04 10:25:19;;;;;;;4.85;3.08;;;20.60;1.00;;;;;;5026752;28;20209;-81
2023/05/04 10:28:00;;;;;;;3.40;3.10;;;20.40;1.00;;;;;;5044855;28;20181;-81
2023/05/04 10:30:26;;;;;;;5.70;2.95;;;20.40;1.00;;;;;;5052704;28;20147;-82
2023/05/04 10:32:56;;;;;;;3.80;3.13;;;20.50;1.00;;;;;;5052800;28;20550;-82
2023/05/04 10:35:22;;;;;;;3.80;3.30;;;20.40;1.00;;;;;;5051504;28;20198;-81
2023/05/04 10:37:53;;;;;;;5.70;3.20;;;20.30;1.00;;;;;;5052492;28;20316;-82
2023/05/04 10:40:31;;;;;;;3.42;3.13;;;20.30;1.00;;;;;;5052384;28;20170;-82
2023/05/04 10:42:57;;;;;;;3.50;3.20;;;20.60;1.00;;;;;;5052711;28;20197;-82
2023/05/04 10:45:37;;;;;;;4.85;3.17;;;20.80;1.00;;;;;;5053249;28;20194;-82
2023/05/04 10:48:03;;;;;;;3.00;2.75;;;21.00;1.00;;;;;;5055266;28;20169;-82
2023/05/04 10:50:48;;;;;;;3.60;3.00;;;21.00;1.00;;;;;;5055990;28;20259;-82
2023/05/04 10:53:15;;;;;;;3.65;3.00;;;20.90;1.00;;;;;;5054668;28;20170;-82
2023/05/04 10:55:46;;;;;;;3.80;3.00;;;20.90;1.00;;;;;;5056061;28;20200;-82
2023/05/04 10:58:15;;;;;;;6.28;3.03;;;21.10;1.00;;;;;;5054481;28;20628;-82
2023/05/04 11:00:42;;;;;;;3.75;2.90;;;21.50;1.00;;;;;;5054415;28;20260;-82
2023/05/04 11:03:08;;;;;;;4.78;3.17;;;21.60;1.00;;;;;;5055985;28;20193;-82
2023/05/04 11:05:41;;;;;;;3.85;3.03;;;21.20;1.00;;;;;;5057765;28;20271;-81
2023/05/04 11:08:19;;;;;;;3.55;3.15;;;20.90;1.00;;;;;;5064621;28;20261;-81
2023/05/04 11:11:03;;;;;;;4.03;3.42;;;21.10;1.00;;;;;;5062972;28;20173;-81
2023/05/04 11:13:30;;;;;;;3.65;2.83;;;21.50;1.00;;;;;;5064824;28;20177;-82
2023/05/04 11:15:56;;;;;;;3.70;2.95;;;21.70;1.00;;;;;;5063372;28;20194;-81
2023/05/04 11:18:33;;;;;;;3.10;2.80;;;22.00;1.00;;;;;;5065516;28;20533;-81
2023/05/04 11:20:59;;;;;;;5.30;3.17;;;22.40;1.00;;;;;;5064591;28;20204;-81
2023/05/04 11:23:25;;;;;;;3.38;3.08;;;22.70;1.00;;;;;;5062879;28;20201;-81
2023/05/04 11:25:51;;;;;;;3.40;3.10;;;22.70;1.00;;;;;;5062644;28;20204;-81
2023/05/04 11:28:17;;;;;;;5.25;3.40;;;22.60;1.00;;;;;;5065198;28;20268;-81
2023/05/04 11:30:44;;;;;;;3.22;2.90;;;22.40;1.00;;;;;;5063462;28;20205;-81
2023/05/04 11:33:12;;;;;;;4.43;3.22;;;22.40;1.00;;;;;;5064188;28;20223;-81
2023/05/04 11:35:39;;;;;;;3.25;2.83;;;22.70;1.00;;;;;;5063451;28;20297;-81
2023/05/04 11:38:06;;;;;;;3.53;2.83;;;22.80;1.00;;;;;;5064954;28;20268;-81
2023/05/04 11:40:33;;;;;;;3.70;2.80;;;22.60;1.00;;;;;;5064964;28;20240;-81
2023/05/04 11:43:00;;;;;;;3.35;2.90;;;22.80;1.00;;;;;;5044785;28;20297;-80
2023/05/04 11:45:30;;;;;;;3.15;2.85;;;23.00;1.00;;;;;;5043963;28;20197;-82
2023/05/04 11:47:56;;;;;;;3.17;2.95;;;23.00;1.00;;;;;;5041086;28;20178;-81
2023/05/04 11:50:22;;;;;;;3.53;2.63;;;22.90;1.00;;;;;;5044046;28;20170;-81
2023/05/04 11:52:48;;;;;;;3.05;2.78;;;22.60;1.00;;;;;;5042426;28;20178;-81
2023/05/04 11:55:30;;;;;;;3.80;3.00;;;22.80;1.00;;;;;;5044207;28;20197;-82
2023/05/04 11:57:59;;;;;;;2.97;2.67;;;22.90;1.00;;;;;;5041549;28;20185;-81
2023/05/04 12:00:41;;;;;;;4.30;2.75;;;23.00;1.00;;;;;;5043427;28;20178;-82
2023/05/04 12:03:13;;;;;;;3.88;2.60;;;23.20;1.00;;;;;;5044106;28;20197;-81
2023/05/04 12:05:51;;;;;;;3.42;2.78;;;23.00;1.00;;;;;;5044934;28;20719;-81
2023/05/04 12:08:33;;;;;;;3.40;2.92;;;23.30;1.00;;;;;;5042266;28;20174;-81
2023/05/04 12:11:19;;;;;;;3.08;2.45;;;23.30;1.00;;;;;;5044463;28;20170;-81
2023/05/04 12:13:46;;;;;;;5.68;2.95;;;23.50;1.00;;;;;;5044463;28;20170;-81
2023/05/04 12:16:15;;;;;;;3.55;2.75;;;23.60;1.00;;;;;;5043261;28;20651;-81
2023/05/04 12:18:44;;;;;;;4.07;2.47;;;23.80;1.00;;;;;;5041275;28;20208;-79
2023/05/04 12:21:11;;;;;;;3.22;2.92;;;24.00;1.00;;;;;;5059005;28;20174;-80
2023/05/04 12:23:37;;;;;;;3.05;2.75;;;23.80;1.00;;;;;;5042653;28;20190;-82
2023/05/04 12:26:03;;;;;;;4.82;2.70;;;24.10;1.00;;;;;;5043348;28;20200;-81
2023/05/04 12:28:29;;;;;;;3.95;2.40;;;24.30;1.00;;;;;;5041848;28;20177;-82
2023/05/04 12:30:55;;;;;;;5.53;2.60;;;24.40;1.00;;;;;;5044976;28;20171;-82
2023/05/04 12:33:22;;;;;;;8.80;2.60;;;24.20;1.00;;;;;;5043625;28;20231;-81
2023/05/04 12:35:47;;;;;;;3.00;2.60;;;24.40;1.00;;;;;;5042056;28;20202;-81
2023/05/04 12:38:13;;;;;;;4.35;2.70;;;24.30;1.00;;;;;;5041377;28;20181;-80
2023/05/04 12:40:39;;;;;;;3.40;2.50;;;24.20;1.00;;;;;;5041299;28;20261;-81
2023/05/04 12:43:04;;;;;;;3.45;2.85;;;24.20;1.00;;;;;;5041415;28;20198;-83
2023/05/04 12:45:30;;;;;;;3.75;2.60;;;24.50;1.00;;;;;;5040467;28;20194;-81
2023/05/04 12:47:55;;;;;;;3.63;2.60;;;24.40;1.00;;;;;;5041699;28;20182;-81
2023/05/04 12:50:21;;;;;;;3.72;2.60;;;23.80;1.00;;;;;;5041118;28;20174;-81
2023/05/04 12:52:47;;;;;;;3.72;2.50;;;23.90;1.00;;;;;;5042832;28;20193;-81
2023/05/04 12:55:12;;;;;;;3.00;2.47;;;24.30;1.00;;;;;;5040888;28;20248;-82
2023/05/04 12:57:38;;;;;;;3.53;2.60;;;24.50;1.00;;;;;;5041574;28;20553;-81